<?xml version="1.0" encoding="UTF-8"?>
<gpx version="1.1" creator="https://www.youtrack.es" xsi:schemaLocation="http://www.topografix.com/GPX/1/1 http://www.topografix.com/GPX/1/1/gpx.xsd http://www.garmin.com/xmlschemas/GpxExtensions/v3 http://www.garmin.com/xmlschemas/GpxExtensionsv3.xsd http://www.garmin.com/xmlschemas/TrackPointExtension/v1 http://www.garmin.com/xmlschemas/TrackPointExtensionv1.xsd" xmlns:gpxtpx="http://www.garmin.com/xmlschemas/TrackPointExtension/v1" xmlns:gpxx="http://www.garmin.com/xmlschemas/GpxExtensions/v3" xmlns:xsi="http://www.w3.org/2001/XMLSchema-instance">
  <metadata>
    <author>
      <name>Jota Solo</name>
      <email id="jicorencia" domain="gmail.com"/>
    </author>
    <link href="https://www.youtrack.es">
      <text>YouTrack.es</text>
    </link>
    <time>2026-05-08T12:48:47Z</time>
  </metadata>
  <trk>
    <src>https://www.youtrack.es</src>
    <link href="https://www.youtrack.es/ruta/10632-prueba-25km--1600">
      <text>YouTrack.es</text>
    </link>
    <trkseg>
      <trkpt lat="39.668671" lon="-0.345973">
        <ele>163.276</ele>
        <time>2020-01-24T13:25:29Z</time>
      </trkpt>
      <trkpt lat="39.669572" lon="-0.345973">
        <ele>173.190</ele>
        <time>2020-01-24T13:25:49Z</time>
      </trkpt>
      <trkpt lat="39.669828" lon="-0.345372">
        <ele>169.719</ele>
        <time>2020-01-24T13:26:09Z</time>
      </trkpt>
      <trkpt lat="39.670075" lon="-0.345222">
        <ele>169.008</ele>
        <time>2020-01-24T13:26:29Z</time>
      </trkpt>
      <trkpt lat="39.670397" lon="-0.344396">
        <ele>171.541</ele>
        <time>2020-01-24T13:26:49Z</time>
      </trkpt>
      <trkpt lat="39.670802" lon="-0.343537">
        <ele>184.872</ele>
        <time>2020-01-24T13:27:09Z</time>
      </trkpt>
      <trkpt lat="39.671248" lon="-0.342829">
        <ele>196.935</ele>
        <time>2020-01-24T13:27:29Z</time>
      </trkpt>
      <trkpt lat="39.671702" lon="-0.341510">
        <ele>214.350</ele>
        <time>2020-01-24T13:27:49Z</time>
      </trkpt>
      <trkpt lat="39.671851" lon="-0.341392">
        <ele>213.439</ele>
        <time>2020-01-24T13:28:09Z</time>
      </trkpt>
      <trkpt lat="39.672016" lon="-0.341520">
        <ele>219.291</ele>
        <time>2020-01-24T13:28:29Z</time>
      </trkpt>
      <trkpt lat="39.672280" lon="-0.341681">
        <ele>236.836</ele>
        <time>2020-01-24T13:28:49Z</time>
      </trkpt>
      <trkpt lat="39.672479" lon="-0.341831">
        <ele>249.562</ele>
        <time>2020-01-24T13:29:09Z</time>
      </trkpt>
      <trkpt lat="39.672553" lon="-0.341971">
        <ele>255.614</ele>
        <time>2020-01-24T13:29:29Z</time>
      </trkpt>
      <trkpt lat="39.672668" lon="-0.342518">
        <ele>271.654</ele>
        <time>2020-01-24T13:29:49Z</time>
      </trkpt>
      <trkpt lat="39.672883" lon="-0.342829">
        <ele>285.809</ele>
        <time>2020-01-24T13:30:09Z</time>
      </trkpt>
      <trkpt lat="39.672957" lon="-0.343677">
        <ele>301.608</ele>
        <time>2020-01-24T13:30:29Z</time>
      </trkpt>
      <trkpt lat="39.672792" lon="-0.344406">
        <ele>306.495</ele>
        <time>2020-01-24T13:30:49Z</time>
      </trkpt>
      <trkpt lat="39.672652" lon="-0.344481">
        <ele>302.066</ele>
        <time>2020-01-24T13:31:09Z</time>
      </trkpt>
      <trkpt lat="39.672867" lon="-0.344696">
        <ele>304.829</ele>
        <time>2020-01-24T13:31:29Z</time>
      </trkpt>
      <trkpt lat="39.673420" lon="-0.345050">
        <ele>306.314</ele>
        <time>2020-01-24T13:31:49Z</time>
      </trkpt>
      <trkpt lat="39.673775" lon="-0.345597">
        <ele>289.683</ele>
        <time>2020-01-24T13:32:09Z</time>
      </trkpt>
      <trkpt lat="39.674155" lon="-0.345340">
        <ele>282.355</ele>
        <time>2020-01-24T13:32:29Z</time>
      </trkpt>
      <trkpt lat="39.674593" lon="-0.345415">
        <ele>272.860</ele>
        <time>2020-01-24T13:32:49Z</time>
      </trkpt>
      <trkpt lat="39.674931" lon="-0.346284">
        <ele>270.216</ele>
        <time>2020-01-24T13:33:09Z</time>
      </trkpt>
      <trkpt lat="39.674898" lon="-0.346831">
        <ele>269.531</ele>
        <time>2020-01-24T13:33:29Z</time>
      </trkpt>
      <trkpt lat="39.675575" lon="-0.346971">
        <ele>279.861</ele>
        <time>2020-01-24T13:33:49Z</time>
      </trkpt>
      <trkpt lat="39.675897" lon="-0.347507">
        <ele>288.607</ele>
        <time>2020-01-24T13:34:09Z</time>
      </trkpt>
      <trkpt lat="39.676591" lon="-0.347636">
        <ele>297.108</ele>
        <time>2020-01-24T13:34:29Z</time>
      </trkpt>
      <trkpt lat="39.677458" lon="-0.348215">
        <ele>326.427</ele>
        <time>2020-01-24T13:34:49Z</time>
      </trkpt>
      <trkpt lat="39.677896" lon="-0.349224">
        <ele>361.868</ele>
        <time>2020-01-24T13:35:09Z</time>
      </trkpt>
      <trkpt lat="39.678201" lon="-0.349599">
        <ele>384.231</ele>
        <time>2020-01-24T13:35:29Z</time>
      </trkpt>
      <trkpt lat="39.678796" lon="-0.349449">
        <ele>364.876</ele>
        <time>2020-01-24T13:35:49Z</time>
      </trkpt>
      <trkpt lat="39.678242" lon="-0.350157">
        <ele>405.775</ele>
        <time>2020-01-24T13:36:09Z</time>
      </trkpt>
      <trkpt lat="39.678267" lon="-0.350597">
        <ele>417.017</ele>
        <time>2020-01-24T13:36:29Z</time>
      </trkpt>
      <trkpt lat="39.678003" lon="-0.350769">
        <ele>417.562</ele>
        <time>2020-01-24T13:36:49Z</time>
      </trkpt>
      <trkpt lat="39.678267" lon="-0.350629">
        <ele>417.658</ele>
        <time>2020-01-24T13:37:09Z</time>
      </trkpt>
      <trkpt lat="39.678234" lon="-0.350211">
        <ele>407.463</ele>
        <time>2020-01-24T13:37:29Z</time>
      </trkpt>
      <trkpt lat="39.678779" lon="-0.349427">
        <ele>364.144</ele>
        <time>2020-01-24T13:37:49Z</time>
      </trkpt>
      <trkpt lat="39.679456" lon="-0.348569">
        <ele>334.618</ele>
        <time>2020-01-24T13:38:09Z</time>
      </trkpt>
      <trkpt lat="39.679836" lon="-0.348054">
        <ele>335.808</ele>
        <time>2020-01-24T13:38:29Z</time>
      </trkpt>
      <trkpt lat="39.680092" lon="-0.347282">
        <ele>330.560</ele>
        <time>2020-01-24T13:38:49Z</time>
      </trkpt>
      <trkpt lat="39.680166" lon="-0.347153">
        <ele>328.481</ele>
        <time>2020-01-24T13:39:09Z</time>
      </trkpt>
      <trkpt lat="39.680794" lon="-0.346981">
        <ele>327.994</ele>
        <time>2020-01-24T13:39:29Z</time>
      </trkpt>
      <trkpt lat="39.680530" lon="-0.346241">
        <ele>319.049</ele>
        <time>2020-01-24T13:39:49Z</time>
      </trkpt>
      <trkpt lat="39.680216" lon="-0.345372">
        <ele>308.218</ele>
        <time>2020-01-24T13:40:09Z</time>
      </trkpt>
      <trkpt lat="39.679877" lon="-0.344685">
        <ele>301.380</ele>
        <time>2020-01-24T13:40:29Z</time>
      </trkpt>
      <trkpt lat="39.679242" lon="-0.344374">
        <ele>275.355</ele>
        <time>2020-01-24T13:40:49Z</time>
      </trkpt>
      <trkpt lat="39.678540" lon="-0.344203">
        <ele>253.791</ele>
        <time>2020-01-24T13:41:09Z</time>
      </trkpt>
      <trkpt lat="39.678160" lon="-0.343881">
        <ele>243.512</ele>
        <time>2020-01-24T13:41:29Z</time>
      </trkpt>
      <trkpt lat="39.677871" lon="-0.343634">
        <ele>233.632</ele>
        <time>2020-01-24T13:41:49Z</time>
      </trkpt>
      <trkpt lat="39.677598" lon="-0.343312">
        <ele>223.805</ele>
        <time>2020-01-24T13:42:09Z</time>
      </trkpt>
      <trkpt lat="39.677739" lon="-0.342765">
        <ele>218.308</ele>
        <time>2020-01-24T13:42:29Z</time>
      </trkpt>
      <trkpt lat="39.677673" lon="-0.343441">
        <ele>226.915</ele>
        <time>2020-01-24T13:42:49Z</time>
      </trkpt>
      <trkpt lat="39.678531" lon="-0.344213">
        <ele>253.616</ele>
        <time>2020-01-24T13:43:09Z</time>
      </trkpt>
      <trkpt lat="39.679877" lon="-0.344718">
        <ele>301.139</ele>
        <time>2020-01-24T13:43:29Z</time>
      </trkpt>
      <trkpt lat="39.680406" lon="-0.345930">
        <ele>314.774</ele>
        <time>2020-01-24T13:43:49Z</time>
      </trkpt>
      <trkpt lat="39.680769" lon="-0.346938">
        <ele>327.563</ele>
        <time>2020-01-24T13:44:09Z</time>
      </trkpt>
      <trkpt lat="39.681463" lon="-0.346724">
        <ele>339.485</ele>
        <time>2020-01-24T13:44:29Z</time>
      </trkpt>
      <trkpt lat="39.681669" lon="-0.345351">
        <ele>356.680</ele>
        <time>2020-01-24T13:44:49Z</time>
      </trkpt>
      <trkpt lat="39.682503" lon="-0.345082">
        <ele>340.776</ele>
        <time>2020-01-24T13:45:09Z</time>
      </trkpt>
      <trkpt lat="39.683849" lon="-0.344707">
        <ele>313.115</ele>
        <time>2020-01-24T13:45:29Z</time>
      </trkpt>
      <trkpt lat="39.685286" lon="-0.343248">
        <ele>293.165</ele>
        <time>2020-01-24T13:45:49Z</time>
      </trkpt>
      <trkpt lat="39.686425" lon="-0.342143">
        <ele>255.111</ele>
        <time>2020-01-24T13:46:09Z</time>
      </trkpt>
      <trkpt lat="39.687003" lon="-0.342604">
        <ele>247.908</ele>
        <time>2020-01-24T13:46:29Z</time>
      </trkpt>
      <trkpt lat="39.686953" lon="-0.343215">
        <ele>240.585</ele>
        <time>2020-01-24T13:46:49Z</time>
      </trkpt>
      <trkpt lat="39.686747" lon="-0.344095">
        <ele>225.516</ele>
        <time>2020-01-24T13:47:09Z</time>
      </trkpt>
      <trkpt lat="39.686689" lon="-0.344728">
        <ele>219.479</ele>
        <time>2020-01-24T13:47:29Z</time>
      </trkpt>
      <trkpt lat="39.686714" lon="-0.344954">
        <ele>217.434</ele>
        <time>2020-01-24T13:47:49Z</time>
      </trkpt>
      <trkpt lat="39.686252" lon="-0.345844">
        <ele>221.963</ele>
        <time>2020-01-24T13:48:09Z</time>
      </trkpt>
      <trkpt lat="39.686053" lon="-0.345973">
        <ele>223.715</ele>
        <time>2020-01-24T13:48:29Z</time>
      </trkpt>
      <trkpt lat="39.685129" lon="-0.345823">
        <ele>241.540</ele>
        <time>2020-01-24T13:48:49Z</time>
      </trkpt>
      <trkpt lat="39.684980" lon="-0.345758">
        <ele>246.376</ele>
        <time>2020-01-24T13:49:09Z</time>
      </trkpt>
      <trkpt lat="39.684220" lon="-0.346574">
        <ele>268.555</ele>
        <time>2020-01-24T13:49:29Z</time>
      </trkpt>
      <trkpt lat="39.683915" lon="-0.346681">
        <ele>279.107</ele>
        <time>2020-01-24T13:49:49Z</time>
      </trkpt>
      <trkpt lat="39.682982" lon="-0.346498">
        <ele>310.717</ele>
        <time>2020-01-24T13:50:09Z</time>
      </trkpt>
      <trkpt lat="39.682941" lon="-0.347518">
        <ele>317.208</ele>
        <time>2020-01-24T13:50:29Z</time>
      </trkpt>
      <trkpt lat="39.682701" lon="-0.348312">
        <ele>329.069</ele>
        <time>2020-01-24T13:50:49Z</time>
      </trkpt>
      <trkpt lat="39.682305" lon="-0.348612">
        <ele>327.910</ele>
        <time>2020-01-24T13:51:09Z</time>
      </trkpt>
      <trkpt lat="39.682239" lon="-0.349535">
        <ele>308.023</ele>
        <time>2020-01-24T13:51:29Z</time>
      </trkpt>
      <trkpt lat="39.682437" lon="-0.350318">
        <ele>301.178</ele>
        <time>2020-01-24T13:51:49Z</time>
      </trkpt>
      <trkpt lat="39.682635" lon="-0.351048">
        <ele>291.167</ele>
        <time>2020-01-24T13:52:09Z</time>
      </trkpt>
      <trkpt lat="39.682957" lon="-0.351595">
        <ele>282.229</ele>
        <time>2020-01-24T13:52:29Z</time>
      </trkpt>
      <trkpt lat="39.683676" lon="-0.351713">
        <ele>282.744</ele>
        <time>2020-01-24T13:52:49Z</time>
      </trkpt>
      <trkpt lat="39.684708" lon="-0.351509">
        <ele>250.950</ele>
        <time>2020-01-24T13:53:09Z</time>
      </trkpt>
      <trkpt lat="39.685492" lon="-0.351251">
        <ele>234.093</ele>
        <time>2020-01-24T13:53:29Z</time>
      </trkpt>
      <trkpt lat="39.685831" lon="-0.350908">
        <ele>213.065</ele>
        <time>2020-01-24T13:53:49Z</time>
      </trkpt>
      <trkpt lat="39.686937" lon="-0.349406">
        <ele>194.321</ele>
        <time>2020-01-24T13:54:09Z</time>
      </trkpt>
      <trkpt lat="39.686788" lon="-0.349771">
        <ele>192.008</ele>
        <time>2020-01-24T13:54:29Z</time>
      </trkpt>
      <trkpt lat="39.686623" lon="-0.350275">
        <ele>194.043</ele>
        <time>2020-01-24T13:54:49Z</time>
      </trkpt>
      <trkpt lat="39.686598" lon="-0.350683">
        <ele>195.284</ele>
        <time>2020-01-24T13:55:09Z</time>
      </trkpt>
      <trkpt lat="39.686607" lon="-0.351219">
        <ele>192.227</ele>
        <time>2020-01-24T13:55:29Z</time>
      </trkpt>
      <trkpt lat="39.686763" lon="-0.351863">
        <ele>185.842</ele>
        <time>2020-01-24T13:55:49Z</time>
      </trkpt>
      <trkpt lat="39.687019" lon="-0.352314">
        <ele>179.641</ele>
        <time>2020-01-24T13:56:09Z</time>
      </trkpt>
      <trkpt lat="39.686706" lon="-0.352582">
        <ele>188.523</ele>
        <time>2020-01-24T13:56:29Z</time>
      </trkpt>
      <trkpt lat="39.686458" lon="-0.353161">
        <ele>196.228</ele>
        <time>2020-01-24T13:56:49Z</time>
      </trkpt>
      <trkpt lat="39.686194" lon="-0.353075">
        <ele>199.114</ele>
        <time>2020-01-24T13:57:09Z</time>
      </trkpt>
      <trkpt lat="39.685971" lon="-0.353665">
        <ele>199.426</ele>
        <time>2020-01-24T13:57:29Z</time>
      </trkpt>
      <trkpt lat="39.685608" lon="-0.354266">
        <ele>206.347</ele>
        <time>2020-01-24T13:57:49Z</time>
      </trkpt>
      <trkpt lat="39.685393" lon="-0.354438">
        <ele>208.011</ele>
        <time>2020-01-24T13:58:09Z</time>
      </trkpt>
      <trkpt lat="39.684889" lon="-0.354717">
        <ele>211.208</ele>
        <time>2020-01-24T13:58:29Z</time>
      </trkpt>
      <trkpt lat="39.684493" lon="-0.354964">
        <ele>216.046</ele>
        <time>2020-01-24T13:58:49Z</time>
      </trkpt>
      <trkpt lat="39.683750" lon="-0.354888">
        <ele>228.477</ele>
        <time>2020-01-24T13:59:09Z</time>
      </trkpt>
      <trkpt lat="39.683403" lon="-0.354867">
        <ele>236.080</ele>
        <time>2020-01-24T13:59:29Z</time>
      </trkpt>
      <trkpt lat="39.683023" lon="-0.354620">
        <ele>235.045</ele>
        <time>2020-01-24T13:59:49Z</time>
      </trkpt>
      <trkpt lat="39.682776" lon="-0.354438">
        <ele>239.164</ele>
        <time>2020-01-24T14:00:09Z</time>
      </trkpt>
      <trkpt lat="39.682660" lon="-0.353934">
        <ele>245.066</ele>
        <time>2020-01-24T14:00:29Z</time>
      </trkpt>
      <trkpt lat="39.682577" lon="-0.353333">
        <ele>256.051</ele>
        <time>2020-01-24T14:00:49Z</time>
      </trkpt>
      <trkpt lat="39.682499" lon="-0.353022">
        <ele>254.977</ele>
        <time>2020-01-24T14:01:09Z</time>
      </trkpt>
      <trkpt lat="39.682264" lon="-0.352657">
        <ele>256.538</ele>
        <time>2020-01-24T14:01:29Z</time>
      </trkpt>
      <trkpt lat="39.682094" lon="-0.352673">
        <ele>259.870</ele>
        <time>2020-01-24T14:01:49Z</time>
      </trkpt>
      <trkpt lat="39.681818" lon="-0.352796">
        <ele>268.717</ele>
        <time>2020-01-24T14:02:09Z</time>
      </trkpt>
      <trkpt lat="39.680810" lon="-0.352979">
        <ele>301.908</ele>
        <time>2020-01-24T14:02:29Z</time>
      </trkpt>
      <trkpt lat="39.678969" lon="-0.354009">
        <ele>358.847</ele>
        <time>2020-01-24T14:02:49Z</time>
      </trkpt>
      <trkpt lat="39.678886" lon="-0.354298">
        <ele>360.368</ele>
        <time>2020-01-24T14:03:09Z</time>
      </trkpt>
      <trkpt lat="39.678878" lon="-0.354921">
        <ele>365.821</ele>
        <time>2020-01-24T14:03:29Z</time>
      </trkpt>
      <trkpt lat="39.679200" lon="-0.355264">
        <ele>372.346</ele>
        <time>2020-01-24T14:03:49Z</time>
      </trkpt>
      <trkpt lat="39.679506" lon="-0.355918">
        <ele>364.995</ele>
        <time>2020-01-24T14:04:09Z</time>
      </trkpt>
      <trkpt lat="39.679671" lon="-0.356272">
        <ele>361.937</ele>
        <time>2020-01-24T14:04:29Z</time>
      </trkpt>
      <trkpt lat="39.680183" lon="-0.356541">
        <ele>362.382</ele>
        <time>2020-01-24T14:04:49Z</time>
      </trkpt>
      <trkpt lat="39.680348" lon="-0.356664">
        <ele>361.338</ele>
        <time>2020-01-24T14:05:09Z</time>
      </trkpt>
      <trkpt lat="39.680856" lon="-0.356541">
        <ele>353.023</ele>
        <time>2020-01-24T14:05:29Z</time>
      </trkpt>
      <trkpt lat="39.681174" lon="-0.356686">
        <ele>345.183</ele>
        <time>2020-01-24T14:05:49Z</time>
      </trkpt>
      <trkpt lat="39.681648" lon="-0.356943">
        <ele>327.811</ele>
        <time>2020-01-24T14:06:09Z</time>
      </trkpt>
      <trkpt lat="39.681958" lon="-0.357163">
        <ele>324.808</ele>
        <time>2020-01-24T14:06:29Z</time>
      </trkpt>
      <trkpt lat="39.682326" lon="-0.357297">
        <ele>322.196</ele>
        <time>2020-01-24T14:06:49Z</time>
      </trkpt>
      <trkpt lat="39.682726" lon="-0.357115">
        <ele>315.517</ele>
        <time>2020-01-24T14:07:09Z</time>
      </trkpt>
      <trkpt lat="39.683816" lon="-0.357453">
        <ele>300.740</ele>
        <time>2020-01-24T14:07:29Z</time>
      </trkpt>
      <trkpt lat="39.684353" lon="-0.357120">
        <ele>290.665</ele>
        <time>2020-01-24T14:07:49Z</time>
      </trkpt>
      <trkpt lat="39.685401" lon="-0.356702">
        <ele>261.664</ele>
        <time>2020-01-24T14:08:09Z</time>
      </trkpt>
      <trkpt lat="39.685475" lon="-0.356348">
        <ele>258.666</ele>
        <time>2020-01-24T14:08:29Z</time>
      </trkpt>
      <trkpt lat="39.685938" lon="-0.356112">
        <ele>251.791</ele>
        <time>2020-01-24T14:08:49Z</time>
      </trkpt>
      <trkpt lat="39.686103" lon="-0.356627">
        <ele>242.857</ele>
        <time>2020-01-24T14:09:09Z</time>
      </trkpt>
      <trkpt lat="39.686202" lon="-0.356948">
        <ele>232.788</ele>
        <time>2020-01-24T14:09:29Z</time>
      </trkpt>
      <trkpt lat="39.686978" lon="-0.357249">
        <ele>196.024</ele>
        <time>2020-01-24T14:09:49Z</time>
      </trkpt>
      <trkpt lat="39.686945" lon="-0.358343">
        <ele>191.026</ele>
        <time>2020-01-24T14:10:09Z</time>
      </trkpt>
      <trkpt lat="39.686351" lon="-0.359094">
        <ele>198.708</ele>
        <time>2020-01-24T14:10:29Z</time>
      </trkpt>
      <trkpt lat="39.686136" lon="-0.359244">
        <ele>201.212</ele>
        <time>2020-01-24T14:10:49Z</time>
      </trkpt>
      <trkpt lat="39.685789" lon="-0.359244">
        <ele>207.683</ele>
        <time>2020-01-24T14:11:09Z</time>
      </trkpt>
      <trkpt lat="39.685756" lon="-0.359523">
        <ele>203.366</ele>
        <time>2020-01-24T14:11:29Z</time>
      </trkpt>
      <trkpt lat="39.685178" lon="-0.359330">
        <ele>222.571</ele>
        <time>2020-01-24T14:11:49Z</time>
      </trkpt>
      <trkpt lat="39.684650" lon="-0.360017">
        <ele>230.730</ele>
        <time>2020-01-24T14:12:09Z</time>
      </trkpt>
      <trkpt lat="39.684237" lon="-0.361047">
        <ele>239.182</ele>
        <time>2020-01-24T14:12:29Z</time>
      </trkpt>
      <trkpt lat="39.683791" lon="-0.361218">
        <ele>241.577</ele>
        <time>2020-01-24T14:12:49Z</time>
      </trkpt>
      <trkpt lat="39.683362" lon="-0.361798">
        <ele>246.783</ele>
        <time>2020-01-24T14:13:09Z</time>
      </trkpt>
      <trkpt lat="39.682932" lon="-0.362012">
        <ele>245.949</ele>
        <time>2020-01-24T14:13:29Z</time>
      </trkpt>
      <trkpt lat="39.682239" lon="-0.361733">
        <ele>261.102</ele>
        <time>2020-01-24T14:13:49Z</time>
      </trkpt>
      <trkpt lat="39.681975" lon="-0.361047">
        <ele>281.322</ele>
        <time>2020-01-24T14:14:09Z</time>
      </trkpt>
      <trkpt lat="39.681611" lon="-0.361025">
        <ele>283.808</ele>
        <time>2020-01-24T14:14:29Z</time>
      </trkpt>
      <trkpt lat="39.680670" lon="-0.360060">
        <ele>310.838</ele>
        <time>2020-01-24T14:14:49Z</time>
      </trkpt>
      <trkpt lat="39.680191" lon="-0.359266">
        <ele>324.039</ele>
        <time>2020-01-24T14:15:09Z</time>
      </trkpt>
      <trkpt lat="39.679861" lon="-0.358579">
        <ele>332.692</ele>
        <time>2020-01-24T14:15:29Z</time>
      </trkpt>
      <trkpt lat="39.679597" lon="-0.358558">
        <ele>335.957</ele>
        <time>2020-01-24T14:15:49Z</time>
      </trkpt>
      <trkpt lat="39.679167" lon="-0.360081">
        <ele>367.716</ele>
        <time>2020-01-24T14:16:09Z</time>
      </trkpt>
      <trkpt lat="39.678375" lon="-0.361390">
        <ele>394.138</ele>
        <time>2020-01-24T14:16:29Z</time>
      </trkpt>
      <trkpt lat="39.678589" lon="-0.362828">
        <ele>389.433</ele>
        <time>2020-01-24T14:16:49Z</time>
      </trkpt>
      <trkpt lat="39.677433" lon="-0.363150">
        <ele>392.639</ele>
        <time>2020-01-24T14:17:09Z</time>
      </trkpt>
      <trkpt lat="39.676607" lon="-0.363579">
        <ele>383.157</ele>
        <time>2020-01-24T14:17:29Z</time>
      </trkpt>
      <trkpt lat="39.676426" lon="-0.363986">
        <ele>383.012</ele>
        <time>2020-01-24T13:03:04Z</time>
      </trkpt>
      <trkpt lat="39.676364" lon="-0.364169">
        <ele>383.932</ele>
        <time>2020-01-24T13:03:24Z</time>
      </trkpt>
      <trkpt lat="39.677821" lon="-0.364040">
        <ele>378.105</ele>
        <time>2020-01-24T13:03:44Z</time>
      </trkpt>
      <trkpt lat="39.678845" lon="-0.364233">
        <ele>356.008</ele>
        <time>2020-01-24T13:04:04Z</time>
      </trkpt>
      <trkpt lat="39.679431" lon="-0.365049">
        <ele>341.045</ele>
        <time>2020-01-24T13:04:24Z</time>
      </trkpt>
      <trkpt lat="39.680117" lon="-0.365070">
        <ele>328.326</ele>
        <time>2020-01-24T13:04:44Z</time>
      </trkpt>
      <trkpt lat="39.681000" lon="-0.364598">
        <ele>305.289</ele>
        <time>2020-01-24T13:05:04Z</time>
      </trkpt>
      <trkpt lat="39.681702" lon="-0.364362">
        <ele>291.934</ele>
        <time>2020-01-24T13:05:24Z</time>
      </trkpt>
      <trkpt lat="39.682561" lon="-0.363579">
        <ele>268.792</ele>
        <time>2020-01-24T13:05:44Z</time>
      </trkpt>
      <trkpt lat="39.683271" lon="-0.362216">
        <ele>249.188</ele>
        <time>2020-01-24T13:06:04Z</time>
      </trkpt>
      <trkpt lat="39.684377" lon="-0.360854">
        <ele>238.717</ele>
        <time>2020-01-24T13:06:24Z</time>
      </trkpt>
      <trkpt lat="39.684815" lon="-0.359759">
        <ele>228.127</ele>
        <time>2020-01-24T13:06:44Z</time>
      </trkpt>
      <trkpt lat="39.685261" lon="-0.359287">
        <ele>220.624</ele>
        <time>2020-01-24T13:07:04Z</time>
      </trkpt>
      <trkpt lat="39.685632" lon="-0.359523">
        <ele>206.704</ele>
        <time>2020-01-24T13:07:24Z</time>
      </trkpt>
      <trkpt lat="39.685979" lon="-0.359277">
        <ele>203.214</ele>
        <time>2020-01-24T13:07:44Z</time>
      </trkpt>
      <trkpt lat="39.686326" lon="-0.359223">
        <ele>198.008</ele>
        <time>2020-01-24T13:08:04Z</time>
      </trkpt>
      <trkpt lat="39.686615" lon="-0.358719">
        <ele>198.036</ele>
        <time>2020-01-24T13:08:24Z</time>
      </trkpt>
      <trkpt lat="39.687507" lon="-0.357882">
        <ele>183.617</ele>
        <time>2020-01-24T13:08:44Z</time>
      </trkpt>
      <trkpt lat="39.687573" lon="-0.357571">
        <ele>182.450</ele>
        <time>2020-01-24T13:09:04Z</time>
      </trkpt>
      <trkpt lat="39.688605" lon="-0.357817">
        <ele>172.855</ele>
        <time>2020-01-24T13:09:24Z</time>
      </trkpt>
      <trkpt lat="39.689323" lon="-0.358214">
        <ele>167.783</ele>
        <time>2020-01-24T13:09:44Z</time>
      </trkpt>
      <trkpt lat="39.690363" lon="-0.357163">
        <ele>159.349</ele>
        <time>2020-01-24T13:10:04Z</time>
      </trkpt>
      <trkpt lat="39.690215" lon="-0.358129">
        <ele>161.468</ele>
        <time>2020-01-24T13:10:24Z</time>
      </trkpt>
      <trkpt lat="39.690859" lon="-0.359030">
        <ele>172.468</ele>
        <time>2020-01-24T13:10:44Z</time>
      </trkpt>
      <trkpt lat="39.691304" lon="-0.359652">
        <ele>184.544</ele>
        <time>2020-01-24T13:11:04Z</time>
      </trkpt>
      <trkpt lat="39.691783" lon="-0.360317">
        <ele>191.805</ele>
        <time>2020-01-24T13:11:24Z</time>
      </trkpt>
      <trkpt lat="39.691321" lon="-0.362152">
        <ele>216.115</ele>
        <time>2020-01-24T13:11:44Z</time>
      </trkpt>
      <trkpt lat="39.691143" lon="-0.363627">
        <ele>235.208</ele>
        <time>2020-01-24T13:12:04Z</time>
      </trkpt>
      <trkpt lat="39.691341" lon="-0.364807">
        <ele>265.268</ele>
        <time>2020-01-24T13:12:24Z</time>
      </trkpt>
      <trkpt lat="39.691651" lon="-0.365590">
        <ele>289.059</ele>
        <time>2020-01-24T13:12:44Z</time>
      </trkpt>
      <trkpt lat="39.691940" lon="-0.366363">
        <ele>303.792</ele>
        <time>2020-01-24T13:13:04Z</time>
      </trkpt>
      <trkpt lat="39.692130" lon="-0.367007">
        <ele>312.757</ele>
        <time>2020-01-24T13:13:24Z</time>
      </trkpt>
      <trkpt lat="39.692406" lon="-0.367774">
        <ele>314.775</ele>
        <time>2020-01-24T13:13:44Z</time>
      </trkpt>
      <trkpt lat="39.692625" lon="-0.368321">
        <ele>317.731</ele>
        <time>2020-01-24T13:14:04Z</time>
      </trkpt>
      <trkpt lat="39.693319" lon="-0.369759">
        <ele>343.240</ele>
        <time>2020-01-24T13:14:24Z</time>
      </trkpt>
      <trkpt lat="39.693368" lon="-0.370960">
        <ele>356.240</ele>
        <time>2020-01-24T13:14:44Z</time>
      </trkpt>
      <trkpt lat="39.693236" lon="-0.372655">
        <ele>375.415</ele>
        <time>2020-01-24T13:15:04Z</time>
      </trkpt>
      <trkpt lat="39.693137" lon="-0.373750">
        <ele>382.865</ele>
        <time>2020-01-24T13:15:24Z</time>
      </trkpt>
      <trkpt lat="39.693352" lon="-0.374823">
        <ele>400.611</ele>
        <time>2020-01-24T13:15:44Z</time>
      </trkpt>
      <trkpt lat="39.693707" lon="-0.374984">
        <ele>423.508</ele>
        <time>2020-01-24T13:16:04Z</time>
      </trkpt>
      <trkpt lat="39.693806" lon="-0.375177">
        <ele>432.525</ele>
        <time>2020-01-24T13:16:24Z</time>
      </trkpt>
      <trkpt lat="39.694367" lon="-0.375327">
        <ele>470.316</ele>
        <time>2020-01-24T13:16:44Z</time>
      </trkpt>
      <trkpt lat="39.694896" lon="-0.375499">
        <ele>504.159</ele>
        <time>2020-01-24T13:17:04Z</time>
      </trkpt>
      <trkpt lat="39.695482" lon="-0.375338">
        <ele>520.574</ele>
        <time>2020-01-24T13:17:24Z</time>
      </trkpt>
      <trkpt lat="39.695672" lon="-0.375681">
        <ele>528.632</ele>
        <time>2020-01-24T13:17:44Z</time>
      </trkpt>
      <trkpt lat="39.695672" lon="-0.376003">
        <ele>531.458</ele>
        <time>2020-01-24T13:18:04Z</time>
      </trkpt>
      <trkpt lat="39.695820" lon="-0.376250">
        <ele>534.467</ele>
        <time>2020-01-24T13:18:24Z</time>
      </trkpt>
      <trkpt lat="39.695473" lon="-0.376979">
        <ele>540.037</ele>
        <time>2020-01-24T13:18:44Z</time>
      </trkpt>
      <trkpt lat="39.694970" lon="-0.377408">
        <ele>548.255</ele>
        <time>2020-01-24T13:19:04Z</time>
      </trkpt>
      <trkpt lat="39.694474" lon="-0.378084">
        <ele>556.507</ele>
        <time>2020-01-24T13:19:24Z</time>
      </trkpt>
      <trkpt lat="39.693913" lon="-0.379082">
        <ele>567.817</ele>
        <time>2020-01-24T13:19:44Z</time>
      </trkpt>
      <trkpt lat="39.693550" lon="-0.379597">
        <ele>567.108</ele>
        <time>2020-01-24T13:20:04Z</time>
      </trkpt>
      <trkpt lat="39.692600" lon="-0.380005">
        <ele>553.519</ele>
        <time>2020-01-24T13:20:24Z</time>
      </trkpt>
      <trkpt lat="39.691915" lon="-0.379994">
        <ele>517.580</ele>
        <time>2020-01-24T13:20:44Z</time>
      </trkpt>
      <trkpt lat="39.691288" lon="-0.380187">
        <ele>493.383</ele>
        <time>2020-01-24T13:21:04Z</time>
      </trkpt>
      <trkpt lat="39.690759" lon="-0.380766">
        <ele>497.088</ele>
        <time>2020-01-24T13:21:24Z</time>
      </trkpt>
      <trkpt lat="39.690231" lon="-0.380766">
        <ele>489.676</ele>
        <time>2020-01-24T13:21:44Z</time>
      </trkpt>
      <trkpt lat="39.689257" lon="-0.380831">
        <ele>479.742</ele>
        <time>2020-01-24T13:22:04Z</time>
      </trkpt>
      <trkpt lat="39.688563" lon="-0.380745">
        <ele>466.221</ele>
        <time>2020-01-24T13:22:24Z</time>
      </trkpt>
      <trkpt lat="39.688051" lon="-0.380230">
        <ele>457.091</ele>
        <time>2020-01-24T13:22:44Z</time>
      </trkpt>
      <trkpt lat="39.688018" lon="-0.380723">
        <ele>445.362</ele>
        <time>2020-01-24T13:23:04Z</time>
      </trkpt>
      <trkpt lat="39.687688" lon="-0.380144">
        <ele>443.883</ele>
        <time>2020-01-24T13:23:24Z</time>
      </trkpt>
      <trkpt lat="39.687490" lon="-0.379264">
        <ele>433.311</ele>
        <time>2020-01-24T13:23:44Z</time>
      </trkpt>
      <trkpt lat="39.687259" lon="-0.380681">
        <ele>413.808</ele>
        <time>2020-01-24T13:24:04Z</time>
      </trkpt>
      <trkpt lat="39.686995" lon="-0.379307">
        <ele>402.150</ele>
        <time>2020-01-24T13:24:24Z</time>
      </trkpt>
      <trkpt lat="39.687110" lon="-0.378106">
        <ele>404.381</ele>
        <time>2020-01-24T13:24:44Z</time>
      </trkpt>
      <trkpt lat="39.687606" lon="-0.377269">
        <ele>405.574</ele>
        <time>2020-01-24T13:25:04Z</time>
      </trkpt>
      <trkpt lat="39.687573" lon="-0.377033">
        <ele>394.529</ele>
        <time>2020-01-24T13:25:24Z</time>
      </trkpt>
      <trkpt lat="39.687061" lon="-0.377483">
        <ele>391.737</ele>
        <time>2020-01-24T13:25:44Z</time>
      </trkpt>
      <trkpt lat="39.685987" lon="-0.379372">
        <ele>363.183</ele>
        <time>2020-01-24T13:26:04Z</time>
      </trkpt>
      <trkpt lat="39.685624" lon="-0.379350">
        <ele>351.012</ele>
        <time>2020-01-24T13:26:24Z</time>
      </trkpt>
      <trkpt lat="39.685343" lon="-0.380230">
        <ele>352.292</ele>
        <time>2020-01-24T13:26:44Z</time>
      </trkpt>
      <trkpt lat="39.685343" lon="-0.379586">
        <ele>348.518</ele>
        <time>2020-01-24T13:27:04Z</time>
      </trkpt>
      <trkpt lat="39.685459" lon="-0.378556">
        <ele>338.498</ele>
        <time>2020-01-24T13:27:24Z</time>
      </trkpt>
      <trkpt lat="39.685921" lon="-0.377140">
        <ele>342.417</ele>
        <time>2020-01-24T13:27:44Z</time>
      </trkpt>
      <trkpt lat="39.686549" lon="-0.376260">
        <ele>348.408</ele>
        <time>2020-01-24T13:28:04Z</time>
      </trkpt>
      <trkpt lat="39.686681" lon="-0.375295">
        <ele>349.275</ele>
        <time>2020-01-24T13:28:24Z</time>
      </trkpt>
      <trkpt lat="39.686334" lon="-0.375466">
        <ele>342.216</ele>
        <time>2020-01-24T13:28:44Z</time>
      </trkpt>
      <trkpt lat="39.686400" lon="-0.375745">
        <ele>344.969</ele>
        <time>2020-01-24T13:29:04Z</time>
      </trkpt>
      <trkpt lat="39.685740" lon="-0.376132">
        <ele>320.154</ele>
        <time>2020-01-24T13:29:24Z</time>
      </trkpt>
      <trkpt lat="39.685492" lon="-0.376325">
        <ele>319.082</ele>
        <time>2020-01-24T13:29:44Z</time>
      </trkpt>
      <trkpt lat="39.685228" lon="-0.376389">
        <ele>321.588</ele>
        <time>2020-01-24T13:30:04Z</time>
      </trkpt>
      <trkpt lat="39.685310" lon="-0.375917">
        <ele>310.287</ele>
        <time>2020-01-24T13:30:24Z</time>
      </trkpt>
      <trkpt lat="39.684617" lon="-0.375123">
        <ele>300.027</ele>
        <time>2020-01-24T13:30:44Z</time>
      </trkpt>
      <trkpt lat="39.684088" lon="-0.374994">
        <ele>292.727</ele>
        <time>2020-01-24T13:31:04Z</time>
      </trkpt>
      <trkpt lat="39.683213" lon="-0.374651">
        <ele>276.268</ele>
        <time>2020-01-24T13:31:24Z</time>
      </trkpt>
      <trkpt lat="39.682718" lon="-0.374801">
        <ele>269.514</ele>
        <time>2020-01-24T13:31:44Z</time>
      </trkpt>
      <trkpt lat="39.682107" lon="-0.375810">
        <ele>274.308</ele>
        <time>2020-01-24T13:32:04Z</time>
      </trkpt>
      <trkpt lat="39.681628" lon="-0.374329">
        <ele>271.046</ele>
        <time>2020-01-24T13:32:24Z</time>
      </trkpt>
      <trkpt lat="39.681248" lon="-0.374479">
        <ele>272.877</ele>
        <time>2020-01-24T13:32:44Z</time>
      </trkpt>
      <trkpt lat="39.680720" lon="-0.375488">
        <ele>283.490</ele>
        <time>2020-01-24T13:33:04Z</time>
      </trkpt>
      <trkpt lat="39.680307" lon="-0.376067">
        <ele>294.925</ele>
        <time>2020-01-24T13:33:24Z</time>
      </trkpt>
      <trkpt lat="39.678853" lon="-0.376282">
        <ele>294.093</ele>
        <time>2020-01-24T13:33:44Z</time>
      </trkpt>
      <trkpt lat="39.678358" lon="-0.377269">
        <ele>303.689</ele>
        <time>2020-01-24T13:34:04Z</time>
      </trkpt>
      <trkpt lat="39.678077" lon="-0.377698">
        <ele>303.738</ele>
        <time>2020-01-24T13:34:24Z</time>
      </trkpt>
      <trkpt lat="39.677995" lon="-0.378556">
        <ele>310.078</ele>
        <time>2020-01-24T13:34:44Z</time>
      </trkpt>
      <trkpt lat="39.677730" lon="-0.378985">
        <ele>310.212</ele>
        <time>2020-01-24T13:35:04Z</time>
      </trkpt>
      <trkpt lat="39.677631" lon="-0.379779">
        <ele>317.032</ele>
        <time>2020-01-24T13:35:24Z</time>
      </trkpt>
      <trkpt lat="39.677367" lon="-0.379779">
        <ele>318.205</ele>
        <time>2020-01-24T13:35:44Z</time>
      </trkpt>
      <trkpt lat="39.677037" lon="-0.379071">
        <ele>321.708</ele>
        <time>2020-01-24T13:36:04Z</time>
      </trkpt>
      <trkpt lat="39.677103" lon="-0.378578">
        <ele>321.225</ele>
        <time>2020-01-24T13:36:24Z</time>
      </trkpt>
      <trkpt lat="39.676740" lon="-0.377934">
        <ele>332.826</ele>
        <time>2020-01-24T13:36:44Z</time>
      </trkpt>
      <trkpt lat="39.676657" lon="-0.377247">
        <ele>332.529</ele>
        <time>2020-01-24T13:37:04Z</time>
      </trkpt>
      <trkpt lat="39.676426" lon="-0.376797">
        <ele>334.214</ele>
        <time>2020-01-24T13:37:24Z</time>
      </trkpt>
      <trkpt lat="39.676128" lon="-0.376861">
        <ele>337.782</ele>
        <time>2020-01-24T13:37:44Z</time>
      </trkpt>
      <trkpt lat="39.675815" lon="-0.377955">
        <ele>355.068</ele>
        <time>2020-01-24T13:38:04Z</time>
      </trkpt>
      <trkpt lat="39.675517" lon="-0.377977">
        <ele>362.747</ele>
        <time>2020-01-24T13:38:24Z</time>
      </trkpt>
      <trkpt lat="39.675138" lon="-0.377634">
        <ele>365.947</ele>
        <time>2020-01-24T13:38:44Z</time>
      </trkpt>
      <trkpt lat="39.675138" lon="-0.378342">
        <ele>384.228</ele>
        <time>2020-01-24T13:39:04Z</time>
      </trkpt>
      <trkpt lat="39.675666" lon="-0.379844">
        <ele>394.389</ele>
        <time>2020-01-24T13:39:24Z</time>
      </trkpt>
      <trkpt lat="39.674989" lon="-0.381367">
        <ele>412.617</ele>
        <time>2020-01-24T13:39:44Z</time>
      </trkpt>
      <trkpt lat="39.674328" lon="-0.382097">
        <ele>430.308</ele>
        <time>2020-01-24T13:40:04Z</time>
      </trkpt>
      <trkpt lat="39.674725" lon="-0.383620">
        <ele>430.256</ele>
        <time>2020-01-24T13:40:24Z</time>
      </trkpt>
      <trkpt lat="39.674213" lon="-0.384221">
        <ele>439.927</ele>
        <time>2020-01-24T13:40:44Z</time>
      </trkpt>
      <trkpt lat="39.673519" lon="-0.382805">
        <ele>475.020</ele>
        <time>2020-01-24T13:41:04Z</time>
      </trkpt>
      <trkpt lat="39.672495" lon="-0.382397">
        <ele>508.135</ele>
        <time>2020-01-24T13:41:24Z</time>
      </trkpt>
      <trkpt lat="39.671421" lon="-0.380809">
        <ele>522.863</ele>
        <time>2020-01-24T13:41:44Z</time>
      </trkpt>
      <trkpt lat="39.671702" lon="-0.380166">
        <ele>536.329</ele>
        <time>2020-01-24T13:42:04Z</time>
      </trkpt>
      <trkpt lat="39.671289" lon="-0.379457">
        <ele>501.998</ele>
        <time>2020-01-24T13:42:24Z</time>
      </trkpt>
      <trkpt lat="39.671967" lon="-0.378449">
        <ele>479.048</ele>
        <time>2020-01-24T13:42:44Z</time>
      </trkpt>
      <trkpt lat="39.671488" lon="-0.377355">
        <ele>443.457</ele>
        <time>2020-01-24T13:43:04Z</time>
      </trkpt>
      <trkpt lat="39.671488" lon="-0.376861">
        <ele>435.700</ele>
        <time>2020-01-24T13:43:24Z</time>
      </trkpt>
      <trkpt lat="39.671735" lon="-0.376432">
        <ele>428.620</ele>
        <time>2020-01-24T13:43:44Z</time>
      </trkpt>
      <trkpt lat="39.671983" lon="-0.376153">
        <ele>420.008</ele>
        <time>2020-01-24T13:44:04Z</time>
      </trkpt>
      <trkpt lat="39.671702" lon="-0.375617">
        <ele>421.339</ele>
        <time>2020-01-24T13:44:24Z</time>
      </trkpt>
      <trkpt lat="39.672066" lon="-0.373900">
        <ele>409.630</ele>
        <time>2020-01-24T13:44:44Z</time>
      </trkpt>
      <trkpt lat="39.671455" lon="-0.373471">
        <ele>404.163</ele>
        <time>2020-01-24T13:45:04Z</time>
      </trkpt>
      <trkpt lat="39.671042" lon="-0.372055">
        <ele>409.978</ele>
        <time>2020-01-24T13:45:24Z</time>
      </trkpt>
      <trkpt lat="39.671322" lon="-0.371153">
        <ele>412.286</ele>
        <time>2020-01-24T13:45:44Z</time>
      </trkpt>
      <trkpt lat="39.671455" lon="-0.370209">
        <ele>414.162</ele>
        <time>2020-01-24T13:46:04Z</time>
      </trkpt>
      <trkpt lat="39.671273" lon="-0.369501">
        <ele>409.751</ele>
        <time>2020-01-24T13:46:24Z</time>
      </trkpt>
      <trkpt lat="39.671735" lon="-0.367699">
        <ele>400.321</ele>
        <time>2020-01-24T13:46:44Z</time>
      </trkpt>
      <trkpt lat="39.672313" lon="-0.367291">
        <ele>396.589</ele>
        <time>2020-01-24T13:47:04Z</time>
      </trkpt>
      <trkpt lat="39.671950" lon="-0.365081">
        <ele>370.706</ele>
        <time>2020-01-24T13:47:24Z</time>
      </trkpt>
      <trkpt lat="39.671355" lon="-0.365038">
        <ele>361.926</ele>
        <time>2020-01-24T13:47:44Z</time>
      </trkpt>
      <trkpt lat="39.671223" lon="-0.365810">
        <ele>363.308</ele>
        <time>2020-01-24T13:48:04Z</time>
      </trkpt>
      <trkpt lat="39.670959" lon="-0.365446">
        <ele>358.262</ele>
        <time>2020-01-24T13:48:24Z</time>
      </trkpt>
      <trkpt lat="39.670893" lon="-0.364695">
        <ele>355.753</ele>
        <time>2020-01-24T13:48:44Z</time>
      </trkpt>
      <trkpt lat="39.671554" lon="-0.363150">
        <ele>352.236</ele>
        <time>2020-01-24T13:49:04Z</time>
      </trkpt>
      <trkpt lat="39.671719" lon="-0.362055">
        <ele>343.011</ele>
        <time>2020-01-24T13:49:24Z</time>
      </trkpt>
      <trkpt lat="39.671240" lon="-0.360553">
        <ele>339.169</ele>
        <time>2020-01-24T13:49:44Z</time>
      </trkpt>
      <trkpt lat="39.670629" lon="-0.359330">
        <ele>336.335</ele>
        <time>2020-01-24T13:50:04Z</time>
      </trkpt>
      <trkpt lat="39.669968" lon="-0.358772">
        <ele>333.264</ele>
        <time>2020-01-24T13:50:24Z</time>
      </trkpt>
      <trkpt lat="39.670348" lon="-0.356476">
        <ele>326.654</ele>
        <time>2020-01-24T13:50:44Z</time>
      </trkpt>
      <trkpt lat="39.670629" lon="-0.355382">
        <ele>335.459</ele>
        <time>2020-01-24T13:51:04Z</time>
      </trkpt>
      <trkpt lat="39.671240" lon="-0.354373">
        <ele>324.003</ele>
        <time>2020-01-24T13:51:24Z</time>
      </trkpt>
      <trkpt lat="39.670678" lon="-0.353150">
        <ele>300.923</ele>
        <time>2020-01-24T13:51:44Z</time>
      </trkpt>
      <trkpt lat="39.670026" lon="-0.351691">
        <ele>251.408</ele>
        <time>2020-01-24T13:52:04Z</time>
      </trkpt>
      <trkpt lat="39.669258" lon="-0.350136">
        <ele>206.479</ele>
        <time>2020-01-24T13:52:24Z</time>
      </trkpt>
      <trkpt lat="39.669497" lon="-0.348891">
        <ele>203.960</ele>
        <time>2020-01-24T13:52:44Z</time>
      </trkpt>
      <trkpt lat="39.669638" lon="-0.348022">
        <ele>200.363</ele>
        <time>2020-01-24T13:53:04Z</time>
      </trkpt>
      <trkpt lat="39.669522" lon="-0.346584">
        <ele>181.128</ele>
        <time>2020-01-24T13:53:24Z</time>
      </trkpt>
      <trkpt lat="39.669365" lon="-0.346080">
        <ele>171.146</ele>
        <time>2020-01-24T13:53:44Z</time>
      </trkpt>
      <trkpt lat="39.668647" lon="-0.345887">
        <ele>162.942</ele>
        <time>2020-01-24T13:54:04Z</time>
      </trkpt>
    </trkseg>
  </trk>
</gpx>
